Terminal Aerodrome Forecast
Issued by NWS San Angelo, TX

Home | Current Version | Previous Version | Text Only | Print | Product List | Glossary On
Versions: 1 2 3 4 5 6 7 8 9 10 11 12 13 14 15 16 17 18 19 20 21 22 23 24
000
FTUS44 KSJT 231130
TAFABI
TAF
KABI 231130Z 2312/2412 15011KT P6SM SCT020 BKN080
     FM231500 14007KT P6SM BKN020
     FM231900 10011KT P6SM VCTS OVC020CB
     FM240000 03010KT P6SM SHRA OVC010
      TEMPO 2400/2404 3SM TSRA OVC010CB
     FM240600 02010KT P6SM SHRA OVC010=

USA.gov is the U.S. government's official web portal to all federal, state and local government web resources and services.